Lewis, Iowa
Current Conditions -  °F | °C
As of 1:55 PM on Monday 24 Nov 2014 (Local Time) from KAIO Reporting Station
Overcast Overcast  
Wind Chill: 16°   Ceiling: 2300
Heat Index: 28°   Visibility: 10mi
Dew Point: 19°   Wind: 18mph
Humidity: 69%   Direction: 310°NW
Pressure: 29.74"   Gusts: 24mph
Location:  41.31°N, 95.08°W
Report Text: KAIO 241955Z AUTO 31016G21KT 10SM OVC023 M02/M07 A2974 RMK AO2
Loading
Personal Weather Stations






























Interactive Weather Map New forecast layout! Learn more

10-Day Weather Forecast

Advertisements
Track Severe Weather on mobile